Time;durP1;ratioP1;P1;durP2;ratioP2;P2;SDS_P1;SDS_P2;PMS_P1;PMS_P2;Temp;Humidity;BMP_temperature;BMP_pressure;BME280_temperature;BME280_humidity;BME280_pressure;Samples;Min_cycle;Max_cycle;Signal;HPM_P1;HPM_P2
2021/07/19 00:01:39;;;;;;;;;10.00;10.00;;;;;-149.00;100.00;66333.84;5102036;27;45242;-78
2021/07/19 00:04:05;;;;;;;;;10.33;10.33;;;;;-149.00;100.00;66333.84;5102307;27;45522;-78
2021/07/19 00:06:31;;;;;;;;;9.67;9.67;;;;;-149.00;100.00;66333.84;5102145;27;45466;-78
2021/07/19 00:08:56;;;;;;;;;10.33;7.67;;;;;-149.00;100.00;66333.84;5102424;27;46189;-78
2021/07/19 00:11:21;;;;;;;;;11.67;10.33;;;;;-149.00;100.00;66333.84;5101202;27;45398;-78
2021/07/19 00:13:47;;;;;;;;;9.00;9.00;;;;;-149.00;100.00;66333.84;5102729;27;45613;-79
2021/07/19 00:16:13;;;;;;;;;13.00;11.67;;;;;-149.00;100.00;66333.84;5101949;27;45318;-78
2021/07/19 00:18:38;;;;;;;;;10.33;10.00;;;;;-149.00;100.00;66333.84;5102281;27;46356;-78
2021/07/19 00:21:04;;;;;;;;;8.00;8.00;;;;;-149.00;100.00;66333.84;5101174;27;45244;-79
2021/07/19 00:23:30;;;;;;;;;8.00;8.00;;;;;-149.00;100.00;66333.84;5101893;27;45401;-78
2021/07/19 00:25:55;;;;;;;;;11.00;9.00;;;;;-149.00;100.00;66333.84;5101531;27;45619;-78
2021/07/19 00:28:21;;;;;;;;;9.00;8.33;;;;;-149.00;100.00;66333.84;5104759;27;46320;-78
2021/07/19 00:30:46;;;;;;;;;12.00;9.00;;;;;-149.00;100.00;66333.84;5109274;27;45230;-78
2021/07/19 00:33:12;;;;;;;;;9.67;9.67;;;;;-149.00;100.00;66333.84;5116095;27;45416;-78
2021/07/19 00:35:39;;;;;;;;;11.00;9.67;;;;;-149.00;100.00;66333.84;5096236;27;47606;-77
2021/07/19 00:38:04;;;;;;;;;8.67;8.67;;;;;-149.00;100.00;66333.84;5114211;27;45251;-78
2021/07/19 00:40:35;;;;;;;;;8.33;8.33;;;;;-149.00;100.00;66333.84;5113513;27;45400;-80
2021/07/19 00:43:01;;;;;;;;;9.00;9.00;;;;;-149.00;100.00;66333.84;5093780;28;44599;-77
2021/07/19 00:45:28;;;;;;;;;9.00;8.00;;;;;-149.00;100.00;66333.84;5092794;28;45504;-78
2021/07/19 00:47:56;;;;;;;;;8.00;8.00;;;;;-149.00;100.00;66333.84;5093215;28;46331;-78
2021/07/19 00:50:24;;;;;;;;;11.33;10.67;;;;;-149.00;100.00;66333.84;5095409;28;44664;-78
2021/07/19 00:52:50;;;;;;;;;8.00;6.33;;;;;-149.00;100.00;66333.84;5094103;28;45253;-78
2021/07/19 00:55:17;;;;;;;;;8.67;8.00;;;;;-149.00;100.00;66333.84;5093769;28;44764;-78
2021/07/19 00:57:47;;;;;;;;;8.00;8.00;;;;;-149.00;100.00;66333.84;5094027;27;47185;-78
2021/07/19 01:00:14;;;;;;;;;11.00;7.33;;;;;-149.00;100.00;66333.84;5116100;27;45370;-77
2021/07/19 01:02:44;;;;;;;;;8.33;7.00;;;;;-149.00;100.00;66333.84;5097027;27;45295;-78
2021/07/19 01:05:10;;;;;;;;;9.00;8.67;;;;;-149.00;100.00;66333.84;5116111;27;45276;-78
2021/07/19 01:07:38;;;;;;;;;11.67;11.00;;;;;-149.00;100.00;66333.84;5115433;27;45336;-77
2021/07/19 01:10:14;;;;;;;;;11.00;10.00;;;;;-149.00;100.00;66333.84;5116542;27;44704;-78
2021/07/19 01:12:49;;;;;;;;;8.00;8.00;;;;;-149.00;100.00;66333.84;5119913;27;44707;-77
2021/07/19 01:15:15;;;;;;;;;9.33;9.33;;;;;-149.00;100.00;66333.84;5119473;27;45465;-78
2021/07/19 01:17:41;;;;;;;;;8.67;8.67;;;;;-149.00;100.00;66333.84;5121925;27;46299;-78
2021/07/19 01:20:08;;;;;;;;;7.67;7.67;;;;;-149.00;100.00;66333.84;5120237;27;44622;-78
2021/07/19 01:23:05;;;;;;;;;10.33;10.33;;;;;-149.00;100.00;66333.84;5116834;27;45311;-78
2021/07/19 01:25:53;;;;;;;;;8.33;8.00;;;;;-149.00;100.00;66333.84;5112071;27;45289;-77
2021/07/19 01:28:58;;;;;;;;;12.00;11.67;;;;;-149.00;100.00;66333.84;5119248;27;45503;-77
2021/07/19 01:31:27;;;;;;;;;11.00;9.33;;;;;-149.00;100.00;66333.84;5034471;28;44731;-77
2021/07/19 01:34:07;;;;;;;;;10.67;9.00;;;;;-149.00;100.00;66333.84;5020494;28;45362;-77
2021/07/19 01:36:41;;;;;;;;;10.33;9.67;;;;;-149.00;100.00;66333.84;5093763;27;45238;-78
2021/07/19 01:39:07;;;;;;;;;9.67;9.67;;;;;-149.00;100.00;66333.84;5116309;27;48680;-78
2021/07/19 01:41:34;;;;;;;;;9.00;8.00;;;;;-149.00;100.00;66333.84;5111824;27;45412;-77
2021/07/19 01:44:01;;;;;;;;;10.00;9.67;;;;;-149.00;100.00;66333.84;5119218;27;45329;-78
2021/07/19 01:46:28;;;;;;;;;8.67;8.67;;;;;-149.00;100.00;66333.84;5097430;27;45236;-78
2021/07/19 01:48:57;;;;;;;;;12.00;10.00;;;;;-149.00;100.00;66333.84;5114494;27;45230;-78
2021/07/19 01:51:24;;;;;;;;;13.00;12.00;;;;;-149.00;100.00;66333.84;5096731;27;46134;-78
2021/07/19 01:53:51;;;;;;;;;10.33;9.33;;;;;-149.00;100.00;66333.84;5097952;27;45377;-78
2021/07/19 01:56:16;;;;;;;;;10.00;9.33;;;;;-149.00;100.00;66333.84;5095292;27;46110;-78
2021/07/19 01:58:43;;;;;;;;;11.33;11.00;;;;;-149.00;100.00;66333.84;5113000;27;45504;-78
2021/07/19 02:01:11;;;;;;;;;10.00;10.00;;;;;-149.00;100.00;66333.84;5114538;27;45215;-79
2021/07/19 02:03:36;;;;;;;;;12.00;9.67;;;;;-149.00;100.00;66333.84;5115653;27;45875;-78
2021/07/19 02:06:05;;;;;;;;;11.00;11.00;;;;;-149.00;100.00;66333.84;5115091;27;45226;-78
2021/07/19 02:08:31;;;;;;;;;10.00;10.00;;;;;-149.00;100.00;66333.84;5113601;27;45334;-78
2021/07/19 02:10:57;;;;;;;;;10.00;10.00;;;;;-149.00;100.00;66333.84;5098042;27;45179;-78
2021/07/19 02:13:25;;;;;;;;;11.00;11.00;;;;;-149.00;100.00;66333.84;5118734;27;45190;-78
2021/07/19 02:15:53;;;;;;;;;12.00;9.00;;;;;-149.00;100.00;66333.84;5117508;27;45351;-78
2021/07/19 02:18:23;;;;;;;;;11.00;11.00;;;;;-149.00;100.00;66333.84;5116118;27;45224;-77
2021/07/19 02:20:49;;;;;;;;;6.67;6.67;;;;;-149.00;100.00;66333.84;5116028;27;44592;-78
2021/07/19 02:23:16;;;;;;;;;9.67;9.67;;;;;-149.00;100.00;66333.84;5115433;27;45484;-78
2021/07/19 02:25:42;;;;;;;;;13.00;11.00;;;;;-149.00;100.00;66333.84;5096573;27;46403;-78
2021/07/19 02:28:12;;;;;;;;;13.00;11.33;;;;;-149.00;100.00;66333.84;5114030;27;45303;-78
2021/07/19 02:30:39;;;;;;;;;11.00;8.33;;;;;-149.00;100.00;66333.84;5099897;27;45244;-78
2021/07/19 02:33:05;;;;;;;;;12.67;12.67;;;;;-149.00;100.00;66333.84;5115817;27;45173;-78
2021/07/19 02:35:31;;;;;;;;;12.67;11.33;;;;;-149.00;100.00;66333.84;5107705;27;45509;-79
2021/07/19 02:38:01;;;;;;;;;12.67;11.00;;;;;-149.00;100.00;66333.84;5109175;27;45289;-77
2021/07/19 02:40:29;;;;;;;;;13.33;12.00;;;;;-149.00;100.00;66333.84;5084830;28;45293;-78
2021/07/19 02:42:57;;;;;;;;;12.67;11.67;;;;;-149.00;100.00;66333.84;5098424;27;44731;-78
2021/07/19 02:45:25;;;;;;;;;9.33;9.33;;;;;-149.00;100.00;66333.84;5108101;27;45683;-78
2021/07/19 02:47:53;;;;;;;;;11.33;11.33;;;;;-149.00;100.00;66333.84;5107429;27;45223;-78
2021/07/19 02:50:25;;;;;;;;;11.67;9.33;;;;;-149.00;100.00;66333.84;5107589;27;45248;-78
2021/07/19 02:52:55;;;;;;;;;12.33;11.33;;;;;-149.00;100.00;66333.84;5109745;27;45515;-77
2021/07/19 02:55:21;;;;;;;;;11.33;11.33;;;;;-149.00;100.00;66333.84;5108968;27;45291;-80
2021/07/19 02:57:46;;;;;;;;;10.33;10.33;;;;;-149.00;100.00;66333.84;5109951;27;46133;-77
2021/07/19 03:00:15;;;;;;;;;11.00;11.00;;;;;-149.00;100.00;66333.84;5090115;27;45414;-78
2021/07/19 03:02:44;;;;;;;;;12.00;12.00;;;;;-149.00;100.00;66333.84;5112074;27;45167;-77
2021/07/19 03:05:11;;;;;;;;;11.00;11.00;;;;;-149.00;100.00;66333.84;5111702;27;45320;-78
2021/07/19 03:07:38;;;;;;;;;10.00;9.33;;;;;-149.00;100.00;66333.84;5110257;27;45449;-78
2021/07/19 03:10:08;;;;;;;;;10.00;8.33;;;;;-149.00;100.00;66333.84;5092580;27;45272;-77
2021/07/19 03:12:36;;;;;;;;;9.67;9.67;;;;;-149.00;100.00;66333.84;5089380;27;45249;-78
2021/07/19 03:15:04;;;;;;;;;12.00;11.33;;;;;-149.00;100.00;66333.84;5111867;27;44722;-79
2021/07/19 03:17:31;;;;;;;;;14.33;11.33;;;;;-149.00;100.00;66333.84;5084262;27;48448;-78
2021/07/19 03:19:58;;;;;;;;;11.67;10.67;;;;;-149.00;100.00;66333.84;5100965;27;45231;-79
2021/07/19 03:22:25;;;;;;;;;11.33;11.33;;;;;-149.00;100.00;66333.84;5101229;27;45326;-78
2021/07/19 03:24:53;;;;;;;;;14.33;14.33;;;;;-149.00;100.00;66333.84;5101405;27;45261;-78
2021/07/19 03:27:22;;;;;;;;;13.00;11.00;;;;;-149.00;100.00;66333.84;5066984;28;48130;-78
2021/07/19 03:29:49;;;;;;;;;12.33;11.00;;;;;-149.00;100.00;66333.84;5080864;28;45236;-79
2021/07/19 03:32:17;;;;;;;;;17.33;15.33;;;;;-149.00;100.00;66333.84;5080572;28;45304;-78
2021/07/19 03:34:43;;;;;;;;;14.00;13.33;;;;;-149.00;100.00;66333.84;5080655;28;45429;-79
2021/07/19 03:37:09;;;;;;;;;11.67;11.67;;;;;-149.00;100.00;66333.84;5080485;28;46191;-78
2021/07/19 03:39:39;;;;;;;;;12.00;12.00;;;;;-149.00;100.00;66333.84;5080846;28;45699;-78
2021/07/19 03:42:05;;;;;;;;;15.00;13.67;;;;;-149.00;100.00;66333.84;5062549;28;45517;-78
2021/07/19 03:44:33;;;;;;;;;12.67;11.67;;;;;-149.00;100.00;66333.84;5080700;28;45300;-78
2021/07/19 03:46:59;;;;;;;;;12.00;11.67;;;;;-149.00;100.00;66333.84;5080218;28;45352;-78
2021/07/19 03:49:25;;;;;;;;;12.33;12.33;;;;;-149.00;100.00;66333.84;5086854;27;45203;-79
2021/07/19 03:51:50;;;;;;;;;11.00;10.33;;;;;-149.00;100.00;66333.84;5101119;27;45468;-79
2021/07/19 03:54:16;;;;;;;;;15.33;15.33;;;;;-149.00;100.00;66333.84;5100934;27;45575;-79
2021/07/19 03:56:43;;;;;;;;;15.00;15.00;;;;;-149.00;100.00;66333.84;5100713;27;45291;-78
2021/07/19 03:59:10;;;;;;;;;16.67;14.00;;;;;-149.00;100.00;66333.84;5082423;27;45792;-77
2021/07/19 04:01:37;;;;;;;;;11.00;11.00;;;;;-149.00;100.00;66333.84;5076335;28;45496;-76
2021/07/19 04:04:06;;;;;;;;;11.67;11.00;;;;;-149.00;100.00;66333.84;5080265;28;45336;-78
2021/07/19 04:06:32;;;;;;;;;11.33;11.00;;;;;-149.00;100.00;66333.84;5080119;28;45247;-80
2021/07/19 04:08:58;;;;;;;;;11.33;11.33;;;;;-149.00;100.00;66333.84;5079086;28;45307;-80
2021/07/19 04:11:24;;;;;;;;;10.67;10.67;;;;;-149.00;100.00;66333.84;5080608;28;45363;-84
2021/07/19 04:13:50;;;;;;;;;13.67;13.33;;;;;-149.00;100.00;66333.84;5080492;28;45473;-78
2021/07/19 04:16:19;;;;;;;;;14.00;14.00;;;;;-149.00;100.00;66333.84;5061664;28;47348;-80
2021/07/19 04:18:45;;;;;;;;;40.33;32.67;;;;;-149.00;100.00;66333.84;5061789;28;45758;-78
2021/07/19 04:21:11;;;;;;;;;41.67;35.33;;;;;-149.00;100.00;66333.84;5080125;28;45307;-79
2021/07/19 04:23:37;;;;;;;;;19.67;19.67;;;;;-149.00;100.00;66333.84;5080804;27;45423;-78
2021/07/19 04:26:03;;;;;;;;;14.00;14.00;;;;;-149.00;100.00;66333.84;5100103;27;45343;-79
2021/07/19 04:28:28;;;;;;;;;13.50;13.00;;;;;-149.00;100.00;66333.84;5100306;27;45312;-79
2021/07/19 04:30:57;;;;;;;;;14.00;12.67;;;;;-149.00;100.00;66333.84;5081829;27;45490;-80
2021/07/19 04:33:22;;;;;;;;;15.00;13.67;;;;;-149.00;100.00;66333.84;5099674;27;45488;-80
2021/07/19 04:35:49;;;;;;;;;14.67;14.33;;;;;-149.00;100.00;66333.84;5100012;27;45538;-79
2021/07/19 04:38:19;;;;;;;;;13.00;13.00;;;;;-149.00;100.00;66333.84;5100796;27;45360;-83
2021/07/19 04:40:53;;;;;;;;;39.67;34.67;;;;;-149.00;100.00;66333.84;5098639;27;45244;-81
2021/07/19 04:43:19;;;;;;;;;16.67;15.67;;;;;-149.00;100.00;66333.84;5099515;27;45433;-80
2021/07/19 04:45:46;;;;;;;;;14.33;12.67;;;;;-149.00;100.00;66333.84;5104623;27;45491;-79
2021/07/19 04:48:13;;;;;;;;;12.33;12.33;;;;;-149.00;100.00;66333.84;5106241;27;45324;-79
2021/07/19 04:50:39;;;;;;;;;12.00;12.00;;;;;-149.00;100.00;66333.84;5105842;27;45632;-79
2021/07/19 04:53:05;;;;;;;;;14.00;13.33;;;;;-149.00;100.00;66333.84;5087199;27;47268;-81
2021/07/19 04:55:32;;;;;;;;;14.00;13.67;;;;;-149.00;100.00;66333.84;5104556;27;47048;-80
2021/07/19 04:57:59;;;;;;;;;13.67;12.67;;;;;-149.00;100.00;66333.84;5106156;27;45378;-80
2021/07/19 05:00:26;;;;;;;;;16.00;11.67;;;;;-149.00;100.00;66333.84;5104754;27;45508;-80
2021/07/19 05:02:53;;;;;;;;;12.67;12.67;;;;;-149.00;100.00;66333.84;5106825;27;45486;-79
2021/07/19 05:05:20;;;;;;;;;10.67;10.67;;;;;-149.00;100.00;66333.84;5107333;27;46370;-79
2021/07/19 05:07:46;;;;;;;;;14.67;14.67;;;;;-149.00;100.00;66333.84;5107541;27;45384;-79
2021/07/19 05:10:19;;;;;;;;;14.67;13.67;;;;;-149.00;100.00;66333.84;5090135;27;45402;-78
2021/07/19 05:12:49;;;;;;;;;13.67;13.67;;;;;-149.00;100.00;66333.84;5089284;27;46207;-79
2021/07/19 05:15:15;;;;;;;;;12.00;10.33;;;;;-149.00;100.00;66333.84;5106756;27;45999;-79
2021/07/19 05:17:42;;;;;;;;;14.67;14.00;;;;;-149.00;100.00;66333.84;5106803;27;45367;-79
2021/07/19 05:20:12;;;;;;;;;13.67;13.67;;;;;-149.00;100.00;66333.84;5106851;27;45249;-79
2021/07/19 05:22:44;;;;;;;;;15.00;13.33;;;;;-149.00;100.00;66333.84;5106342;27;45215;-79
2021/07/19 05:25:10;;;;;;;;;11.00;10.67;;;;;-149.00;100.00;66333.84;5106711;27;46327;-79
2021/07/19 05:27:38;;;;;;;;;13.00;13.00;;;;;-149.00;100.00;66333.84;5106348;27;45318;-80
2021/07/19 05:30:04;;;;;;;;;16.00;14.67;;;;;-149.00;100.00;66333.84;5088634;27;45307;-79
2021/07/19 05:32:29;;;;;;;;;14.00;12.00;;;;;-149.00;100.00;66333.84;5106624;27;45219;-79
2021/07/19 05:34:54;;;;;;;;;15.33;12.67;;;;;-149.00;100.00;66333.84;5106180;27;45231;-79
2021/07/19 05:37:20;;;;;;;;;12.67;12.67;;;;;-149.00;100.00;66333.84;5106497;27;45249;-79
2021/07/19 05:39:46;;;;;;;;;13.67;13.67;;;;;-149.00;100.00;66333.84;5107337;27;45366;-79
2021/07/19 05:42:12;;;;;;;;;16.00;15.00;;;;;-149.00;100.00;66333.84;5106308;27;45304;-79
2021/07/19 05:44:37;;;;;;;;;13.67;13.67;;;;;-149.00;100.00;66333.84;5106454;27;46072;-79
2021/07/19 05:47:03;;;;;;;;;11.33;11.33;;;;;-149.00;100.00;66333.84;5106605;27;45307;-79
2021/07/19 05:49:29;;;;;;;;;19.00;15.67;;;;;-149.00;100.00;66333.84;5107400;27;45299;-79
2021/07/19 05:51:54;;;;;;;;;15.00;15.00;;;;;-149.00;100.00;66333.84;5106462;27;45238;-79
2021/07/19 05:54:20;;;;;;;;;15.33;13.67;;;;;-149.00;100.00;66333.84;5106298;27;45268;-79
2021/07/19 05:56:45;;;;;;;;;12.00;12.00;;;;;-149.00;100.00;66333.84;5104158;27;45277;-79
2021/07/19 05:59:10;;;;;;;;;12.33;12.00;;;;;-149.00;100.00;66333.84;5103135;27;45221;-79
2021/07/19 06:01:36;;;;;;;;;15.33;14.33;;;;;-149.00;100.00;66333.84;5103201;27;45226;-78
2021/07/19 06:04:01;;;;;;;;;15.00;12.00;;;;;-149.00;100.00;66333.84;5102749;27;45212;-79
2021/07/19 06:06:27;;;;;;;;;13.00;13.00;;;;;-149.00;100.00;66333.84;5102664;27;45360;-79
2021/07/19 06:08:52;;;;;;;;;12.67;12.33;;;;;-149.00;100.00;66333.84;5103028;27;45293;-79
2021/07/19 06:11:18;;;;;;;;;16.67;11.67;;;;;-149.00;100.00;66333.84;5084083;27;47235;-79
2021/07/19 06:13:43;;;;;;;;;10.33;10.33;;;;;-149.00;100.00;66333.84;5102645;27;45281;-79
2021/07/19 06:16:09;;;;;;;;;14.33;11.67;;;;;-149.00;100.00;66333.84;5101134;27;45820;-79
2021/07/19 06:18:34;;;;;;;;;13.33;13.00;;;;;-149.00;100.00;66333.84;5102899;27;45318;-78
2021/07/19 06:20:59;;;;;;;;;15.00;13.33;;;;;-149.00;100.00;66333.84;5102811;27;45264;-79
2021/07/19 06:23:25;;;;;;;;;14.00;13.00;;;;;-149.00;100.00;66333.84;5083613;27;47463;-79
2021/07/19 06:25:51;;;;;;;;;18.67;15.00;;;;;-149.00;100.00;66333.84;5102290;27;45333;-80
2021/07/19 06:28:17;;;;;;;;;13.67;12.00;;;;;-149.00;100.00;66333.84;5103130;27;45362;-79
2021/07/19 06:30:42;;;;;;;;;11.33;11.33;;;;;-149.00;100.00;66333.84;5102021;27;45270;-79
2021/07/19 06:33:07;;;;;;;;;16.00;15.00;;;;;-149.00;100.00;66333.84;5103703;27;45404;-79
2021/07/19 06:35:33;;;;;;;;;14.00;12.00;;;;;-149.00;100.00;66333.84;5103425;27;45347;-79
2021/07/19 06:37:58;;;;;;;;;13.00;13.00;;;;;-149.00;100.00;66333.84;5102512;27;45332;-79
2021/07/19 06:40:24;;;;;;;;;14.00;13.67;;;;;-149.00;100.00;66333.84;5107028;27;45353;-79
2021/07/19 06:42:49;;;;;;;;;14.33;14.33;;;;;-149.00;100.00;66333.84;5087669;27;48327;-78
2021/07/19 06:45:15;;;;;;;;;14.00;13.33;;;;;-149.00;100.00;66333.84;5103266;27;45327;-79
2021/07/19 06:47:41;;;;;;;;;14.67;14.67;;;;;-149.00;100.00;66333.84;5102512;27;45196;-79
2021/07/19 06:50:09;;;;;;;;;14.00;13.67;;;;;-149.00;100.00;66333.84;5106674;27;45230;-78
2021/07/19 06:52:36;;;;;;;;;14.67;14.00;;;;;-149.00;100.00;66333.84;5104783;27;45485;-79
2021/07/19 06:55:01;;;;;;;;;16.00;13.33;;;;;-149.00;100.00;66333.84;5103267;27;45326;-79
2021/07/19 06:57:27;;;;;;;;;13.67;13.00;;;;;-149.00;100.00;66333.84;5104277;27;45409;-78
2021/07/19 06:59:52;;;;;;;;;12.67;12.67;;;;;-149.00;100.00;66333.84;5103685;27;45507;-78
2021/07/19 07:02:17;;;;;;;;;15.33;14.33;;;;;-149.00;100.00;66333.84;5104758;27;46175;-79
2021/07/19 07:04:43;;;;;;;;;13.00;12.00;;;;;-149.00;100.00;66333.84;5084014;27;45366;-79
2021/07/19 07:07:09;;;;;;;;;14.33;13.67;;;;;-149.00;100.00;66333.84;5083481;27;45368;-80
2021/07/19 07:09:34;;;;;;;;;12.67;12.33;;;;;-149.00;100.00;66333.84;5102109;27;45459;-78
2021/07/19 07:12:00;;;;;;;;;13.67;12.67;;;;;-149.00;100.00;66333.84;5084610;27;47455;-79
2021/07/19 07:14:25;;;;;;;;;18.00;15.00;;;;;-149.00;100.00;66333.84;5103484;27;45253;-79
2021/07/19 07:16:50;;;;;;;;;12.00;11.00;;;;;-149.00;100.00;66333.84;5103161;27;45212;-79
2021/07/19 07:19:16;;;;;;;;;11.33;11.33;;;;;-149.00;100.00;66333.84;5101989;27;45519;-79
2021/07/19 07:21:42;;;;;;;;;16.33;13.33;;;;;-149.00;100.00;66333.84;5102383;27;46629;-79
2021/07/19 07:24:07;;;;;;;;;12.33;10.00;;;;;-149.00;100.00;66333.84;5103432;27;45283;-78
2021/07/19 07:26:32;;;;;;;;;18.33;18.00;;;;;-149.00;100.00;66333.84;5103009;27;45354;-78
2021/07/19 07:28:58;;;;;;;;;16.00;15.00;;;;;-149.00;100.00;66333.84;5104952;27;45496;-78
2021/07/19 07:31:27;;;;;;;;;13.00;13.00;;;;;-149.00;100.00;66333.84;5093719;27;45257;-79
2021/07/19 07:33:57;;;;;;;;;17.00;14.00;;;;;-149.00;100.00;66333.84;5101962;27;45336;-78
2021/07/19 07:36:23;;;;;;;;;15.33;15.00;;;;;-149.00;100.00;66333.84;5101715;27;45230;-79
2021/07/19 07:38:50;;;;;;;;;11.00;10.00;;;;;-149.00;100.00;66333.84;5102014;27;45164;-79
2021/07/19 07:41:15;;;;;;;;;13.00;12.67;;;;;-149.00;100.00;66333.84;5101220;27;45429;-79
2021/07/19 07:43:40;;;;;;;;;15.00;14.00;;;;;-149.00;100.00;66333.84;5102043;27;45239;-80
2021/07/19 07:46:06;;;;;;;;;13.00;13.00;;;;;-149.00;100.00;66333.84;5084933;27;45477;-79
2021/07/19 07:48:32;;;;;;;;;14.00;13.33;;;;;-149.00;100.00;66333.84;5104119;27;45405;-79
2021/07/19 07:50:58;;;;;;;;;10.67;10.67;;;;;-149.00;100.00;66333.84;5101742;27;47956;-79
2021/07/19 07:53:23;;;;;;;;;11.67;10.00;;;;;-149.00;100.00;66333.84;5106531;27;45255;-78
2021/07/19 07:55:48;;;;;;;;;13.00;11.33;;;;;-149.00;100.00;66333.84;5083904;27;45380;-79
2021/07/19 07:58:14;;;;;;;;;10.00;9.33;;;;;-149.00;100.00;66333.84;5101554;27;45262;-80
2021/07/19 08:00:41;;;;;;;;;9.67;8.67;;;;;-149.00;100.00;66333.84;5101183;27;46164;-79
2021/07/19 08:03:06;;;;;;;;;9.00;9.00;;;;;-149.00;100.00;66333.84;5101170;27;45235;-79
2021/07/19 08:05:31;;;;;;;;;13.67;13.33;;;;;-149.00;100.00;66333.84;5101337;27;45416;-79
2021/07/19 08:07:57;;;;;;;;;10.67;10.67;;;;;-149.00;100.00;66333.84;5105071;27;45574;-78
2021/07/19 08:10:22;;;;;;;;;11.67;11.67;;;;;-149.00;100.00;66333.84;5102020;27;46283;-79
2021/07/19 08:12:48;;;;;;;;;12.00;10.00;;;;;-149.00;100.00;66333.84;5103143;27;45224;-79
2021/07/19 08:15:15;;;;;;;;;11.00;10.67;;;;;-149.00;100.00;66333.84;5102660;27;45152;-78
2021/07/19 08:17:40;;;;;;;;;13.00;11.33;;;;;-149.00;100.00;66333.84;5084504;27;47037;-80
2021/07/19 08:20:06;;;;;;;;;10.67;9.67;;;;;-149.00;100.00;66333.84;5100479;27;46426;-79
2021/07/19 08:22:31;;;;;;;;;9.33;9.33;;;;;-149.00;100.00;66333.84;5103439;27;45613;-79
2021/07/19 08:24:58;;;;;;;;;9.67;9.67;;;;;-149.00;100.00;66333.84;5102527;27;45461;-78
2021/07/19 08:27:24;;;;;;;;;3.33;1.67;;;;;-149.00;100.00;66333.84;5101548;27;45274;-79
2021/07/19 08:29:50;;;;;;;;;7.67;7.00;;;;;-149.00;100.00;66333.84;5082039;27;47981;-79
2021/07/19 08:32:16;;;;;;;;;9.33;9.00;;;;;-149.00;100.00;66333.84;5102472;27;45254;-78
2021/07/19 08:34:44;;;;;;;;;6.67;6.67;;;;;-149.00;100.00;66333.84;5084917;27;45310;-80
2021/07/19 08:37:09;;;;;;;;;8.00;8.00;;;;;-149.00;100.00;66333.84;5101195;27;45276;-79
2021/07/19 08:39:35;;;;;;;;;7.33;6.00;;;;;-149.00;100.00;66333.84;5101974;27;45158;-78
2021/07/19 08:42:01;;;;;;;;;5.00;5.00;;;;;-149.00;100.00;66333.84;5083358;27;45403;-79
2021/07/19 08:44:27;;;;;;;;;7.33;5.33;;;;;-149.00;100.00;66333.84;5101116;27;45516;-80
2021/07/19 08:46:52;;;;;;;;;7.00;7.00;;;;;-149.00;100.00;66333.84;5101084;27;45442;-79
2021/07/19 08:49:17;;;;;;;;;11.00;11.00;;;;;-149.00;100.00;66333.84;5100922;27;46268;-78
2021/07/19 08:51:44;;;;;;;;;8.67;8.67;;;;;-149.00;100.00;66333.84;5101040;27;45401;-78
2021/07/19 08:54:11;;;;;;;;;8.33;7.33;;;;;-149.00;100.00;66333.84;5103019;27;45896;-78
2021/07/19 08:56:39;;;;;;;;;9.67;9.67;;;;;-149.00;100.00;66333.84;5100416;27;45481;-79
2021/07/19 08:59:07;;;;;;;;;5.33;5.33;;;;;-149.00;100.00;66333.84;5102171;27;46202;-79
2021/07/19 09:01:33;;;;;;;;;6.00;6.00;;;;;-149.00;100.00;66333.84;5099848;27;45368;-78
2021/07/19 09:03:59;;;;;;;;;7.00;6.00;;;;;-149.00;100.00;66333.84;5082290;27;45303;-79
2021/07/19 09:06:24;;;;;;;;;9.00;8.33;;;;;-149.00;100.00;66333.84;5101068;27;45548;-79
2021/07/19 09:08:51;;;;;;;;;7.33;7.00;;;;;-149.00;100.00;66333.84;5101406;27;46175;-79
2021/07/19 09:11:18;;;;;;;;;6.67;6.67;;;;;-149.00;100.00;66333.84;5102765;27;45303;-79
2021/07/19 09:14:05;;;;;;;;;6.33;6.33;;;;;-149.00;100.00;66333.84;5106528;27;45193;-79
2021/07/19 09:16:41;;;;;;;;;7.00;7.00;;;;;-149.00;100.00;66333.84;5107725;27;45577;-79
2021/07/19 09:19:12;;;;;;;;;6.00;6.00;;;;;-149.00;100.00;66333.84;5101857;27;45371;-78
2021/07/19 09:21:39;;;;;;;;;9.00;7.33;;;;;-149.00;100.00;66333.84;5101620;27;45449;-78
2021/07/19 09:24:12;;;;;;;;;8.33;8.33;;;;;-149.00;100.00;66333.84;5084553;27;45261;-79
2021/07/19 09:26:39;;;;;;;;;8.00;8.00;;;;;-149.00;100.00;66333.84;5104068;27;45294;-78
2021/07/19 09:29:07;;;;;;;;;8.00;8.00;;;;;-149.00;100.00;66333.84;5104365;27;46727;-78
2021/07/19 09:31:41;;;;;;;;;8.00;8.00;;;;;-149.00;100.00;66333.84;5084175;27;45354;-80
2021/07/19 09:34:23;;;;;;;;;10.00;8.00;;;;;-149.00;100.00;66333.84;5066962;28;45294;-80
2021/07/19 09:37:05;;;;;;;;;11.00;9.00;;;;;-149.00;100.00;66333.84;5084876;28;45371;-78
2021/07/19 09:39:45;;;;;;;;;7.00;7.00;;;;;-149.00;100.00;66333.84;5088471;28;46417;-79
2021/07/19 09:42:14;;;;;;;;;8.67;8.67;;;;;-149.00;100.00;66333.84;5084595;28;45276;-79
2021/07/19 09:44:41;;;;;;;;;10.33;10.00;;;;;-149.00;100.00;66333.84;5069814;28;45339;-79
2021/07/19 09:47:12;;;;;;;;;8.00;8.00;;;;;-149.00;100.00;66333.84;5085069;28;45188;-79
2021/07/19 09:49:38;;;;;;;;;10.33;10.00;;;;;-149.00;100.00;66333.84;5085580;28;46206;-79
2021/07/19 09:52:09;;;;;;;;;6.67;6.33;;;;;-149.00;100.00;66333.84;5085853;28;45379;-78
2021/07/19 09:54:46;;;;;;;;;6.67;6.67;;;;;-149.00;100.00;66333.84;5087008;28;45151;-78
2021/07/19 09:57:13;;;;;;;;;7.00;7.00;;;;;-149.00;100.00;66333.84;5085713;28;45330;-80
2021/07/19 09:59:51;;;;;;;;;9.00;7.67;;;;;-149.00;100.00;66333.84;5083036;28;46008;-79
2021/07/19 10:02:37;;;;;;;;;10.00;9.00;;;;;-149.00;100.00;66333.84;5083207;28;45286;-79
2021/07/19 10:05:05;;;;;;;;;6.67;6.67;;;;;-149.00;100.00;66333.84;5083254;28;45226;-79
2021/07/19 10:07:30;;;;;;;;;7.33;7.33;;;;;-149.00;100.00;66333.84;5084216;28;45326;-79
2021/07/19 10:09:57;;;;;;;;;8.33;7.00;;;;;-149.00;100.00;66333.84;5082861;28;45388;-80
2021/07/19 10:12:23;;;;;;;;;11.00;9.67;;;;;-149.00;100.00;66333.84;5066819;28;45316;-78
2021/07/19 10:14:50;;;;;;;;;7.00;7.00;;;;;-149.00;100.00;66333.84;5087272;28;45521;-79
2021/07/19 10:17:16;;;;;;;;;9.00;8.33;;;;;-149.00;100.00;66333.84;5067524;28;45964;-78
2021/07/19 10:19:42;;;;;;;;;8.33;8.33;;;;;-149.00;100.00;66333.84;5070542;28;47135;-78
2021/07/19 10:22:10;;;;;;;;;8.00;8.00;;;;;-149.00;100.00;66333.84;5091409;27;45264;-79
2021/07/19 10:24:38;;;;;;;;;9.00;9.00;;;;;-149.00;100.00;66333.84;5088398;27;45373;-79
2021/07/19 10:27:04;;;;;;;;;10.00;10.00;;;;;-149.00;100.00;66333.84;5111082;27;45256;-78
2021/07/19 10:29:30;;;;;;;;;10.33;8.33;;;;;-149.00;100.00;66333.84;5106119;27;46088;-79
2021/07/19 10:31:56;;;;;;;;;9.33;6.33;;;;;-149.00;100.00;66333.84;5108708;27;45281;-79
2021/07/19 10:34:22;;;;;;;;;9.33;9.33;;;;;-149.00;100.00;66333.84;5105369;27;45260;-80
2021/07/19 10:36:47;;;;;;;;;9.67;9.67;;;;;-149.00;100.00;66333.84;5105421;27;45314;-79
2021/07/19 10:39:21;;;;;;;;;7.33;7.33;;;;;-149.00;100.00;66333.84;5104808;27;45282;-79
2021/07/19 10:41:59;;;;;;;;;6.00;6.00;;;;;-149.00;100.00;66333.84;5091067;27;45395;-80
2021/07/19 10:44:33;;;;;;;;;11.00;10.33;;;;;-149.00;100.00;66333.84;5107122;27;45278;-78
2021/07/19 10:47:08;;;;;;;;;9.00;9.00;;;;;-149.00;100.00;66333.84;5085731;27;46226;-79
2021/07/19 10:49:40;;;;;;;;;8.00;8.00;;;;;-149.00;100.00;66333.84;5105943;27;45283;-79
2021/07/19 10:52:10;;;;;;;;;9.33;9.33;;;;;-149.00;100.00;66333.84;5105304;27;45343;-80
2021/07/19 10:54:48;;;;;;;;;7.67;7.00;;;;;-149.00;100.00;66333.84;5106667;27;45312;-79
2021/07/19 10:57:17;;;;;;;;;9.00;9.00;;;;;-149.00;100.00;66333.84;5106888;27;45275;-78
2021/07/19 11:00:09;;;;;;;;;8.33;8.33;;;;;-149.00;100.00;66333.84;5075957;27;48402;-78
2021/07/19 11:02:35;;;;;;;;;7.00;7.00;;;;;-149.00;100.00;66333.84;5115116;27;45255;-80